sensor_id;sensor_type;location;lat;lon;timestamp;pressure;altitude;pressure_sealevel;temperature;humidity
17950;BME280;9100;48.700;9.316;2023-05-25T00:00:00;98138;;;12.57;69.554
17950;BME280;9100;48.700;9.316;2023-05-25T00:01:01;98146.5;;;12.64;69.854
17950;BME280;9100;48.700;9.316;2023-05-25T00:02:00;98150.59999999999;;;12.65;70.239
17950;BME280;9100;48.700;9.316;2023-05-25T00:03:00;98147.1;;;12.67;70.54
17950;BME280;9100;48.700;9.316;2023-05-25T00:04:00;98151.5;;;12.66;70.656
17950;BME280;9100;48.700;9.316;2023-05-25T00:04:55;98143.5;;;12.61;70.349
17950;BME280;9100;48.700;9.316;2023-05-25T00:05:00;98145.3;;;12.6;70.349
17950;BME280;9100;48.700;9.316;2023-05-25T00:06:00;98145.3;;;12.6;70.904
17950;BME280;9100;48.700;9.316;2023-05-25T00:07:01;98147;;;12.6;71.202
17950;BME280;9100;48.700;9.316;2023-05-25T00:08:00;98141.9;;;12.6;71.33
17950;BME280;9100;48.700;9.316;2023-05-25T00:09:00;98147.2;;;12.58;71.626
17950;BME280;9100;48.700;9.316;2023-05-25T00:09:55;98148.2;;;12.57;71.647
17950;BME280;9100;48.700;9.316;2023-05-25T00:10:00;98141.5;;;12.56;71.698
17950;BME280;9100;48.700;9.316;2023-05-25T00:11:00;98148.2;;;12.57;71.647
17950;BME280;9100;48.700;9.316;2023-05-25T00:12:01;98146.6;;;12.56;71.826
17950;BME280;9100;48.700;9.316;2023-05-25T00:13:00;98144;;;12.56;72.179
17950;BME280;9100;48.700;9.316;2023-05-25T00:14:00;98145;;;12.55;72.402
17950;BME280;9100;48.700;9.316;2023-05-25T00:14:55;98147.6;;;12.55;72.521
17950;BME280;9100;48.700;9.316;2023-05-25T00:15:00;98141.7;;;12.55;72.604
17950;BME280;9100;48.700;9.316;2023-05-25T00:16:00;98147.6;;;12.55;72.713
17950;BME280;9100;48.700;9.316;2023-05-25T00:17:00;98145;;;12.55;72.969
17950;BME280;9100;48.700;9.316;2023-05-25T00:18:00;98143.2;;;12.56;73.311
17950;BME280;9100;48.700;9.316;2023-05-25T00:19:00;98143.1;;;12.57;73.335
17950;BME280;9100;48.700;9.316;2023-05-25T00:19:55;98145.8;;;12.56;73.396
17950;BME280;9100;48.700;9.316;2023-05-25T00:20:00;98146.6;;;12.56;73.407
17950;BME280;9100;48.700;9.316;2023-05-25T00:21:00;98144;;;12.56;73.278
17950;BME280;9100;48.700;9.316;2023-05-25T00:22:00;98139.9;;;12.55;73.204
17950;BME280;9100;48.700;9.316;2023-05-25T00:23:00;98137.7;;;12.52;72.888
17950;BME280;9100;48.700;9.316;2023-05-25T00:24:01;98083.1;;;12.14;73.166
17950;BME280;9100;48.700;9.316;2023-05-25T00:24:55;98134.79999999999;;;12.47;73.253
17950;BME280;9100;48.700;9.316;2023-05-25T00:25:00;98137.40000000001;;;12.47;73.264
17950;BME280;9100;48.700;9.316;2023-05-25T00:26:01;98139.20000000001;;;12.47;73.339
17950;BME280;9100;48.700;9.316;2023-05-25T00:27:01;98135;;;12.46;73.752
17950;BME280;9100;48.700;9.316;2023-05-25T00:28:00;98141.09999999999;;;12.45;74.072
17950;BME280;9100;48.700;9.316;2023-05-25T00:29:01;98140.20000000001;;;12.46;74.265
17950;BME280;9100;48.700;9.316;2023-05-25T00:29:55;98137.8;;;12.44;74.444
17950;BME280;9100;48.700;9.316;2023-05-25T00:30:00;98136;;;12.45;74.436
17950;BME280;9100;48.700;9.316;2023-05-25T00:31:00;98141.9;;;12.45;74.66
17950;BME280;9100;48.700;9.316;2023-05-25T00:32:00;98141;;;12.46;74.843
17950;BME280;9100;48.700;9.316;2023-05-25T00:33:00;98141.3;;;12.43;75.073
17950;BME280;9100;48.700;9.316;2023-05-25T00:34:01;98138.7;;;12.43;74.977
17950;BME280;9100;48.700;9.316;2023-05-25T00:34:55;98136.5;;;12.4;74.758
17950;BME280;9100;48.700;9.316;2023-05-25T00:35:00;98139.09999999999;;;12.4;74.758
17950;BME280;9100;48.700;9.316;2023-05-25T00:36:00;98140.9;;;12.4;74.842
17950;BME280;9100;48.700;9.316;2023-05-25T00:37:01;98144.6;;;12.37;75.146
17950;BME280;9100;48.700;9.316;2023-05-25T00:38:00;98141.09999999999;;;12.38;75.566
17950;BME280;9100;48.700;9.316;2023-05-25T00:39:01;98138.7;;;12.37;75.926
17950;BME280;9100;48.700;9.316;2023-05-25T00:39:55;98145.6;;;12.36;75.904
17950;BME280;9100;48.700;9.316;2023-05-25T00:40:00;98139.8;;;12.34;75.923
17950;BME280;9100;48.700;9.316;2023-05-25T00:41:00;98143.2;;;12.35;76.157
17950;BME280;9100;48.700;9.316;2023-05-25T00:42:00;98145.9;;;12.33;75.973
17950;BME280;9100;48.700;9.316;2023-05-25T00:43:00;98147.90000000001;;;12.31;76.033
17950;BME280;9100;48.700;9.316;2023-05-25T00:44:00;98149.59999999999;;;12.31;76.13
17950;BME280;9100;48.700;9.316;2023-05-25T00:44:55;98143.1;;;12.28;76.34
17950;BME280;9100;48.700;9.316;2023-05-25T00:45:01;98139.5;;;12.29;76.34
17950;BME280;9100;48.700;9.316;2023-05-25T00:46:01;98138.8;;;12.29;76.671
17950;BME280;9100;48.700;9.316;2023-05-25T00:47:00;98139.5;;;12.29;76.852
17950;BME280;9100;48.700;9.316;2023-05-25T00:48:00;98140.5;;;12.28;77.076
17950;BME280;9100;48.700;9.316;2023-05-25T00:49:00;98136.40000000001;;;12.27;77.606
17950;BME280;9100;48.700;9.316;2023-05-25T00:49:55;98138;;;12.28;77.663
17950;BME280;9100;48.700;9.316;2023-05-25T00:50:01;98136.40000000001;;;12.27;77.649
17950;BME280;9100;48.700;9.316;2023-05-25T00:51:00;98143.1;;;12.28;77.76
17950;BME280;9100;48.700;9.316;2023-05-25T00:52:00;98137.8;;;12.3;77.804
17950;BME280;9100;48.700;9.316;2023-05-25T00:53:00;98131.9;;;12.29;77.749
17950;BME280;9100;48.700;9.316;2023-05-25T00:54:00;98134.40000000001;;;12.29;78.037
17950;BME280;9100;48.700;9.316;2023-05-25T00:54:55;98132;;;12.28;78.26
17950;BME280;9100;48.700;9.316;2023-05-25T00:55:01;98126.9;;;12.28;78.28
17950;BME280;9100;48.700;9.316;2023-05-25T00:56:01;98130.5;;;12.27;78.726
17950;BME280;9100;48.700;9.316;2023-05-25T00:57:01;98127.70000000001;;;12.28;78.944
17950;BME280;9100;48.700;9.316;2023-05-25T00:58:00;98126.3;;;12.26;78.971
17950;BME280;9100;48.700;9.316;2023-05-25T00:59:02;98122.5;;;12.22;79.103
17950;BME280;9100;48.700;9.316;2023-05-25T00:59:55;98124.40000000001;;;12.2;79.174
17950;BME280;9100;48.700;9.316;2023-05-25T01:00:00;98123.6;;;12.19;79.215
17950;BME280;9100;48.700;9.316;2023-05-25T01:01:00;98120.3;;;12.19;79.501
17950;BME280;9100;48.700;9.316;2023-05-25T01:02:01;98123;;;12.17;79.606
17950;BME280;9100;48.700;9.316;2023-05-25T01:03:02;98123.2;;;12.15;79.624
17950;BME280;9100;48.700;9.316;2023-05-25T01:04:01;98120;;;12.13;79.813
17950;BME280;9100;48.700;9.316;2023-05-25T01:04:56;98120.2;;;12.12;80.033
17950;BME280;9100;48.700;9.316;2023-05-25T01:05:00;98112.7;;;12.1;80.074
17950;BME280;9100;48.700;9.316;2023-05-25T01:06:00;98122.79999999999;;;12.12;80.438
17950;BME280;9100;48.700;9.316;2023-05-25T01:07:01;98123.6;;;12.12;80.718
17950;BME280;9100;48.700;9.316;2023-05-25T01:08:01;98122;;;12.11;80.577
17950;BME280;9100;48.700;9.316;2023-05-25T01:09:02;98116;;;12.11;80.599
17950;BME280;9100;48.700;9.316;2023-05-25T01:09:55;98125.5;;;12.1;80.832
17950;BME280;9100;48.700;9.316;2023-05-25T01:10:03;98119.6;;;12.1;80.841
17950;BME280;9100;48.700;9.316;2023-05-25T01:11:00;98121.2;;;12.11;80.759
17950;BME280;9100;48.700;9.316;2023-05-25T01:12:01;98117.2;;;12.08;81.148
17950;BME280;9100;48.700;9.316;2023-05-25T01:13:00;98117.2;;;12.08;81.201
17950;BME280;9100;48.700;9.316;2023-05-25T01:14:01;98109.6;;;12;81.305
17950;BME280;9100;48.700;9.316;2023-05-25T01:14:55;98114.8;;;12.07;81.199
17950;BME280;9100;48.700;9.316;2023-05-25T01:15:00;98121.90000000001;;;12.05;81.151
17950;BME280;9100;48.700;9.316;2023-05-25T01:16:00;98117.9;;;12.02;81.308
17950;BME280;9100;48.700;9.316;2023-05-25T01:17:01;98115.9;;;11.98;81.619
17950;BME280;9100;48.700;9.316;2023-05-25T01:18:00;98120.2;;;11.97;81.884
17950;BME280;9100;48.700;9.316;2023-05-25T01:19:01;98117.8;;;11.96;82.202
17950;BME280;9100;48.700;9.316;2023-05-25T01:19:55;98119.8;;;11.94;82.454
17950;BME280;9100;48.700;9.316;2023-05-25T01:20:00;98118;;;11.94;82.486
17950;BME280;9100;48.700;9.316;2023-05-25T01:21:03;98114.4;;;11.95;82.744
17950;BME280;9100;48.700;9.316;2023-05-25T01:22:03;98115.20000000001;;;11.96;82.906
17950;BME280;9100;48.700;9.316;2023-05-25T01:23:02;98111.1;;;11.95;83.149
17950;BME280;9100;48.700;9.316;2023-05-25T01:24:03;98114.59999999999;;;11.94;83.243
17950;BME280;9100;48.700;9.316;2023-05-25T01:24:57;98106.3;;;11.92;83.656
17950;BME280;9100;48.700;9.316;2023-05-25T01:25:02;98113;;;11.93;83.743
17950;BME280;9100;48.700;9.316;2023-05-25T01:26:02;98112.2;;;11.92;83.848
17950;BME280;9100;48.700;9.316;2023-05-25T01:27:02;98112.40000000001;;;11.91;84.017
17950;BME280;9100;48.700;9.316;2023-05-25T01:28:02;98116.09999999999;;;11.88;84.256
17950;BME280;9100;48.700;9.316;2023-05-25T01:29:01;98118.1;;;11.86;84.401
17950;BME280;9100;48.700;9.316;2023-05-25T01:29:55;98114.09999999999;;;11.84;84.609
17950;BME280;9100;48.700;9.316;2023-05-25T01:30:01;98117.6;;;11.83;84.64
17950;BME280;9100;48.700;9.316;2023-05-25T01:31:01;98115;;;11.83;84.661
17950;BME280;9100;48.700;9.316;2023-05-25T01:32:01;98117.6;;;11.83;84.98
17950;BME280;9100;48.700;9.316;2023-05-25T01:33:00;98109.1;;;11.82;85.205
17950;BME280;9100;48.700;9.316;2023-05-25T01:34:01;98110.90000000001;;;11.82;85.384
17950;BME280;9100;48.700;9.316;2023-05-25T01:34:55;98118;;;11.8;85.508
17950;BME280;9100;48.700;9.316;2023-05-25T01:35:02;98112.8;;;11.8;85.529
17950;BME280;9100;48.700;9.316;2023-05-25T01:36:01;98117.8;;;11.81;85.619
17950;BME280;9100;48.700;9.316;2023-05-25T01:37:01;98111;;;11.8;85.969
17950;BME280;9100;48.700;9.316;2023-05-25T01:38:01;98119.7;;;11.79;86.404
17950;BME280;9100;48.700;9.316;2023-05-25T01:39:01;98114.8;;;11.78;86.73
17950;BME280;9100;48.700;9.316;2023-05-25T01:39:55;98118.3;;;11.77;86.921
17950;BME280;9100;48.700;9.316;2023-05-25T01:40:01;98112.2;;;11.78;86.955
17950;BME280;9100;48.700;9.316;2023-05-25T01:41:01;98112.40000000001;;;11.76;87.187
17950;BME280;9100;48.700;9.316;2023-05-25T01:42:01;98116.7;;;11.76;87.132
17950;BME280;9100;48.700;9.316;2023-05-25T01:43:01;98118.6;;;11.74;87.31
17950;BME280;9100;48.700;9.316;2023-05-25T01:44:01;98113.8;;;11.71;87.56
17950;BME280;9100;48.700;9.316;2023-05-25T01:44:55;98110.7;;;11.68;87.598
17950;BME280;9100;48.700;9.316;2023-05-25T01:45:01;98111.3;;;11.71;87.612
17950;BME280;9100;48.700;9.316;2023-05-25T01:46:03;98079.2;;;11.45;87.7
17950;BME280;9100;48.700;9.316;2023-05-25T01:47:02;98108.7;;;11.71;87.729
17950;BME280;9100;48.700;9.316;2023-05-25T01:48:02;98113.8;;;11.71;87.911
17950;BME280;9100;48.700;9.316;2023-05-25T01:49:01;98110.7;;;11.68;88.035
17950;BME280;9100;48.700;9.316;2023-05-25T01:49:57;98110;;;11.66;88.17
17950;BME280;9100;48.700;9.316;2023-05-25T01:50:02;98107.5;;;11.66;88.181
17950;BME280;9100;48.700;9.316;2023-05-25T01:51:01;98115.20000000001;;;11.66;88.266
17950;BME280;9100;48.700;9.316;2023-05-25T01:52:03;98111;;;11.65;88.487
17950;BME280;9100;48.700;9.316;2023-05-25T01:53:01;98115.20000000001;;;11.66;88.649
17950;BME280;9100;48.700;9.316;2023-05-25T01:54:02;98116.09999999999;;;11.65;88.871
17950;BME280;9100;48.700;9.316;2023-05-25T01:54:56;98120.6;;;11.63;89.07
17950;BME280;9100;48.700;9.316;2023-05-25T01:55:02;98124;;;11.64;89.081
17950;BME280;9100;48.700;9.316;2023-05-25T01:56:01;98123.40000000001;;;11.62;89.279
17950;BME280;9100;48.700;9.316;2023-05-25T01:57:01;98131.8;;;11.62;89.386
17950;BME280;9100;48.700;9.316;2023-05-25T01:58:01;98130.2;;;11.61;89.546
17950;BME280;9100;48.700;9.316;2023-05-25T01:59:01;98121.8;;;11.61;89.853
17950;BME280;9100;48.700;9.316;2023-05-25T01:59:55;98122;;;11.59;89.915
17950;BME280;9100;48.700;9.316;2023-05-25T02:00:01;98121.2;;;11.59;89.902
17950;BME280;9100;48.700;9.316;2023-05-25T02:01:01;98119.4;;;11.59;89.989
17950;BME280;9100;48.700;9.316;2023-05-25T02:02:00;98114.3;;;11.59;90.096
17950;BME280;9100;48.700;9.316;2023-05-25T02:03:01;98116;;;11.59;90.243
17950;BME280;9100;48.700;9.316;2023-05-25T02:04:01;98115.20000000001;;;11.58;90.486
17950;BME280;9100;48.700;9.316;2023-05-25T02:04:55;98123.29999999999;;;11.55;90.472
17950;BME280;9100;48.700;9.316;2023-05-25T02:05:01;98116.4;;;11.56;90.514
17950;BME280;9100;48.700;9.316;2023-05-25T02:06:01;98113.8;;;11.56;90.728
17950;BME280;9100;48.700;9.316;2023-05-25T02:07:02;98120.7;;;11.55;90.866
17950;BME280;9100;48.700;9.316;2023-05-25T02:08:01;98114.59999999999;;;11.56;90.876
17950;BME280;9100;48.700;9.316;2023-05-25T02:09:01;98118.9;;;11.56;91.036
17950;BME280;9100;48.700;9.316;2023-05-25T02:09:55;98110.5;;;11.55;91.239
17950;BME280;9100;48.700;9.316;2023-05-25T02:10:01;98118.9;;;11.56;91.271
17950;BME280;9100;48.700;9.316;2023-05-25T02:11:01;98119.1;;;11.54;91.267
17950;BME280;9100;48.700;9.316;2023-05-25T02:12:00;98118.1;;;11.55;91.452
17950;BME280;9100;48.700;9.316;2023-05-25T02:13:00;98114.20000000001;;;11.53;91.627
17950;BME280;9100;48.700;9.316;2023-05-25T02:14:00;98111;;;11.51;91.751
17950;BME280;9100;48.700;9.316;2023-05-25T02:14:55;98111.2;;;11.49;91.874
17950;BME280;9100;48.700;9.316;2023-05-25T02:15:00;98108;;;11.47;91.945
17950;BME280;9100;48.700;9.316;2023-05-25T02:16:00;98110.40000000001;;;11.49;92.151
17950;BME280;9100;48.700;9.316;2023-05-25T02:17:00;98109.6;;;11.48;92.149
17950;BME280;9100;48.700;9.316;2023-05-25T02:18:00;98105.4;;;11.47;92.393
17950;BME280;9100;48.700;9.316;2023-05-25T02:19:00;98108.8;;;11.48;92.553
17950;BME280;9100;48.700;9.316;2023-05-25T02:19:55;98108;;;11.47;92.51
17950;BME280;9100;48.700;9.316;2023-05-25T02:20:01;98106.4;;;11.46;92.529
17950;BME280;9100;48.700;9.316;2023-05-25T02:21:01;98108.8;;;11.48;92.808
17950;BME280;9100;48.700;9.316;2023-05-25T02:22:00;98111.2;;;11.49;93.025
17950;BME280;9100;48.700;9.316;2023-05-25T02:23:00;98109.6;;;11.48;93.087
17950;BME280;9100;48.700;9.316;2023-05-25T02:24:01;98109.6;;;11.48;92.938
17950;BME280;9100;48.700;9.316;2023-05-25T02:24:55;98107;;;11.48;93.183
17950;BME280;9100;48.700;9.316;2023-05-25T02:25:01;98108.6;;;11.49;93.196
17950;BME280;9100;48.700;9.316;2023-05-25T02:26:01;98106.8;;;11.5;93.548
17950;BME280;9100;48.700;9.316;2023-05-25T02:27:01;98106;;;11.49;93.153
17950;BME280;9100;48.700;9.316;2023-05-25T02:28:01;98107.6;;;11.5;92.942
17950;BME280;9100;48.700;9.316;2023-05-25T02:29:01;98103.3;;;11.51;92.966
17950;BME280;9100;48.700;9.316;2023-05-25T02:29:55;98097.7;;;11.47;92.872
17950;BME280;9100;48.700;9.316;2023-05-25T02:30:01;98100.9;;;11.49;92.876
17950;BME280;9100;48.700;9.316;2023-05-25T02:31:01;98100.9;;;11.49;93.079
17950;BME280;9100;48.700;9.316;2023-05-25T02:32:01;98099.3;;;11.48;93.034
17950;BME280;9100;48.700;9.316;2023-05-25T02:33:01;98096.8;;;11.48;93.013
17950;BME280;9100;48.700;9.316;2023-05-25T02:34:01;98100.3;;;11.47;93.373
17950;BME280;9100;48.700;9.316;2023-05-25T02:34:55;98094.5;;;11.45;93.635
17950;BME280;9100;48.700;9.316;2023-05-25T02:35:01;98101.3;;;11.46;93.658
17950;BME280;9100;48.700;9.316;2023-05-25T02:36:01;98098.7;;;11.46;93.84
17950;BME280;9100;48.700;9.316;2023-05-25T02:37:01;98103;;;11.46;93.923
17950;BME280;9100;48.700;9.316;2023-05-25T02:38:01;98101.3;;;11.46;94.159
17950;BME280;9100;48.700;9.316;2023-05-25T02:39:01;98103.2;;;11.44;94.379
17950;BME280;9100;48.700;9.316;2023-05-25T02:39:55;98105;;;11.44;94.483
17950;BME280;9100;48.700;9.316;2023-05-25T02:40:01;98098.1;;;11.44;94.496
17950;BME280;9100;48.700;9.316;2023-05-25T02:41:01;98098.7;;;11.46;94.468
17950;BME280;9100;48.700;9.316;2023-05-25T02:42:00;98097.7;;;11.47;94.588
17950;BME280;9100;48.700;9.316;2023-05-25T02:43:00;98099.3;;;11.48;94.611
17950;BME280;9100;48.700;9.316;2023-05-25T02:44:01;98103.59999999999;;;11.48;94.396
17950;BME280;9100;48.700;9.316;2023-05-25T02:44:55;98104.8;;;11.45;94.413
17950;BME280;9100;48.700;9.316;2023-05-25T02:45:00;98103.2;;;11.44;94.464
17950;BME280;9100;48.700;9.316;2023-05-25T02:46:00;98105.9;;;11.43;94.622
17950;BME280;9100;48.700;9.316;2023-05-25T02:47:00;98105.1;;;11.42;94.758
17950;BME280;9100;48.700;9.316;2023-05-25T02:48:00;98107.9;;;11.41;94.956
17950;BME280;9100;48.700;9.316;2023-05-25T02:49:01;98104.5;;;11.4;95.393
17950;BME280;9100;48.700;9.316;2023-05-25T02:49:55;98109;;;11.38;95.474
17950;BME280;9100;48.700;9.316;2023-05-25T02:50:00;98103.9;;;11.38;95.474
17950;BME280;9100;48.700;9.316;2023-05-25T02:51:01;98103.9;;;11.38;95.612
17950;BME280;9100;48.700;9.316;2023-05-25T02:52:01;98107.4;;;11.37;95.65
17950;BME280;9100;48.700;9.316;2023-05-25T02:53:00;98109.2;;;11.37;95.938
17950;BME280;9100;48.700;9.316;2023-05-25T02:54:01;98108.7;;;11.33;96.238
17950;BME280;9100;48.700;9.316;2023-05-25T02:54:55;98110.5;;;11.33;96.494
17950;BME280;9100;48.700;9.316;2023-05-25T02:55:01;98110.5;;;11.33;96.483
17950;BME280;9100;48.700;9.316;2023-05-25T02:56:01;98105.4;;;11.33;96.878
17950;BME280;9100;48.700;9.316;2023-05-25T02:57:01;98104;;;11.3;96.786
17950;BME280;9100;48.700;9.316;2023-05-25T02:58:01;98102.20000000001;;;11.31;97.095
17950;BME280;9100;48.700;9.316;2023-05-25T02:59:01;98105.7;;;11.3;97.19
17950;BME280;9100;48.700;9.316;2023-05-25T02:59:55;98106.7;;;11.29;97.464
17950;BME280;9100;48.700;9.316;2023-05-25T03:00:01;98110;;;11.29;97.455
17950;BME280;9100;48.700;9.316;2023-05-25T03:01:01;98105.7;;;11.3;97.511
17950;BME280;9100;48.700;9.316;2023-05-25T03:02:01;98112.59999999999;;;11.29;97.646
17950;BME280;9100;48.700;9.316;2023-05-25T03:03:01;98105.5;;;11.31;97.854
17950;BME280;9100;48.700;9.316;2023-05-25T03:04:01;98111.6;;;11.3;97.776
17950;BME280;9100;48.700;9.316;2023-05-25T03:04:55;98110.79999999999;;;11.3;97.904
17950;BME280;9100;48.700;9.316;2023-05-25T03:05:01;98110.79999999999;;;11.3;97.894
17950;BME280;9100;48.700;9.316;2023-05-25T03:06:01;98108.1;;;11.31;97.906
17950;BME280;9100;48.700;9.316;2023-05-25T03:07:01;98114.8;;;11.32;98.167
17950;BME280;9100;48.700;9.316;2023-05-25T03:08:01;98114;;;11.32;97.983
17950;BME280;9100;48.700;9.316;2023-05-25T03:09:01;98122.79999999999;;;11.29;97.615
17950;BME280;9100;48.700;9.316;2023-05-25T03:09:55;98120.3;;;11.29;97.774
17950;BME280;9100;48.700;9.316;2023-05-25T03:10:01;98120.5;;;11.28;97.825
17950;BME280;9100;48.700;9.316;2023-05-25T03:11:01;98118.7;;;11.28;98.198
17950;BME280;9100;48.700;9.316;2023-05-25T03:12:01;98119.7;;;11.27;98.782
17950;BME280;9100;48.700;9.316;2023-05-25T03:13:01;98111.2;;;11.27;99.046
17950;BME280;9100;48.700;9.316;2023-05-25T03:14:01;98116.3;;;11.27;99.334
17950;BME280;9100;48.700;9.316;2023-05-25T03:14:55;98111.2;;;11.27;99.525
17950;BME280;9100;48.700;9.316;2023-05-25T03:15:01;98115.5;;;11.26;99.578
17950;BME280;9100;48.700;9.316;2023-05-25T03:16:01;98118.9;;;11.27;99.419
17950;BME280;9100;48.700;9.316;2023-05-25T03:17:01;98112.90000000001;;;11.26;99.387
17950;BME280;9100;48.700;9.316;2023-05-25T03:18:01;98117.3;;;11.26;99.536
17950;BME280;9100;48.700;9.316;2023-05-25T03:19:01;98119;;;11.25;99.437
17950;BME280;9100;48.700;9.316;2023-05-25T03:19:55;98115.8;;;11.23;99.316
17950;BME280;9100;48.700;9.316;2023-05-25T03:20:01;98118.4;;;11.23;99.306
17950;BME280;9100;48.700;9.316;2023-05-25T03:21:01;98113.9;;;11.25;99.289
17950;BME280;9100;48.700;9.316;2023-05-25T03:22:01;98109.7;;;11.24;99.159
17950;BME280;9100;48.700;9.316;2023-05-25T03:23:01;98113.9;;;11.25;99.544
17950;BME280;9100;48.700;9.316;2023-05-25T03:24:01;98114.70000000001;;;11.26;99.632
17950;BME280;9100;48.700;9.316;2023-05-25T03:24:55;98120.6;;;11.26;99.695
17950;BME280;9100;48.700;9.316;2023-05-25T03:25:01;98116.3;;;11.27;99.695
17950;BME280;9100;48.700;9.316;2023-05-25T03:26:01;98112;;;11.27;99.592
17950;BME280;9100;48.700;9.316;2023-05-25T03:27:01;98109.40000000001;;;11.27;100
17950;BME280;9100;48.700;9.316;2023-05-25T03:28:01;98107.8;;;11.26;99.6
17950;BME280;9100;48.700;9.316;2023-05-25T03:29:01;98108;;;11.25;99.648
17950;BME280;9100;48.700;9.316;2023-05-25T03:29:55;98109.1;;;11.22;99.889
17950;BME280;9100;48.700;9.316;2023-05-25T03:30:01;98117.4;;;11.24;99.883
17950;BME280;9100;48.700;9.316;2023-05-25T03:31:01;98112.5;;;11.23;100
17950;BME280;9100;48.700;9.316;2023-05-25T03:32:01;98111.7;;;11.22;100
17950;BME280;9100;48.700;9.316;2023-05-25T03:33:01;98112.8;;;11.19;100
17950;BME280;9100;48.700;9.316;2023-05-25T03:34:01;98103.59999999999;;;11.18;100
17950;BME280;9100;48.700;9.316;2023-05-25T03:34:55;98103.7;;;11.17;100
17950;BME280;9100;48.700;9.316;2023-05-25T03:35:02;98111.40000000001;;;11.17;100
17950;BME280;9100;48.700;9.316;2023-05-25T03:36:04;98104.7;;;11.16;100
17950;BME280;9100;48.700;9.316;2023-05-25T03:37:00;98099.59999999999;;;11.16;100
17950;BME280;9100;48.700;9.316;2023-05-25T03:38:00;98102.3;;;11.14;100
17950;BME280;9100;48.700;9.316;2023-05-25T03:39:00;98096.40000000001;;;11.14;100
17950;BME280;9100;48.700;9.316;2023-05-25T03:39:55;98099.90000000001;;;11.13;100
17950;BME280;9100;48.700;9.316;2023-05-25T03:40:00;98106;;;11.12;100
17950;BME280;9100;48.700;9.316;2023-05-25T03:41:01;98103.5;;;11.12;100
17950;BME280;9100;48.700;9.316;2023-05-25T03:42:01;98098.5;;;11.1;100
17950;BME280;9100;48.700;9.316;2023-05-25T03:43:01;98102.8;;;11.1;100
17950;BME280;9100;48.700;9.316;2023-05-25T03:44:01;98103;;;11.08;100
17950;BME280;9100;48.700;9.316;2023-05-25T03:44:55;98106.5;;;11.07;100
17950;BME280;9100;48.700;9.316;2023-05-25T03:45:01;98111.6;;;11.07;100
17950;BME280;9100;48.700;9.316;2023-05-25T03:46:01;98102.3;;;11.06;100
17950;BME280;9100;48.700;9.316;2023-05-25T03:47:01;98099.59999999999;;;11.08;100
17950;BME280;9100;48.700;9.316;2023-05-25T03:48:01;98105.7;;;11.07;100
17950;BME280;9100;48.700;9.316;2023-05-25T03:49:01;98107.3;;;11.08;100
17950;BME280;9100;48.700;9.316;2023-05-25T03:49:55;98102.20000000001;;;11.08;100
17950;BME280;9100;48.700;9.316;2023-05-25T03:50:01;98106.5;;;11.07;100
17950;BME280;9100;48.700;9.316;2023-05-25T03:51:01;98107;;;11.11;100
17950;BME280;9100;48.700;9.316;2023-05-25T03:52:01;98105;;;11.13;100
17950;BME280;9100;48.700;9.316;2023-05-25T03:53:01;98105;;;11.13;100
17950;BME280;9100;48.700;9.316;2023-05-25T03:54:01;98120.4;;;11.13;100
17950;BME280;9100;48.700;9.316;2023-05-25T03:54:55;98111.7;;;11.14;100
17950;BME280;9100;48.700;9.316;2023-05-25T03:55:01;98122;;;11.14;100
17950;BME280;9100;48.700;9.316;2023-05-25T03:56:01;98115.7;;;11.16;100
17950;BME280;9100;48.700;9.316;2023-05-25T03:57:01;98109.6;;;11.17;100
17950;BME280;9100;48.700;9.316;2023-05-25T03:58:01;98116.4;;;11.18;100
17950;BME280;9100;48.700;9.316;2023-05-25T03:59:01;98114.59999999999;;;11.19;100
17950;BME280;9100;48.700;9.316;2023-05-25T03:59:55;98115.20000000001;;;11.21;100
17950;BME280;9100;48.700;9.316;2023-05-25T04:00:01;98116.2;;;11.2;100
17950;BME280;9100;48.700;9.316;2023-05-25T04:01:01;98120.2;;;11.23;100
17950;BME280;9100;48.700;9.316;2023-05-25T04:02:01;98115.8;;;11.23;100
17950;BME280;9100;48.700;9.316;2023-05-25T04:03:01;98125.09999999999;;;11.24;100
17950;BME280;9100;48.700;9.316;2023-05-25T04:04:01;98131.8;;;11.25;100
17950;BME280;9100;48.700;9.316;2023-05-25T04:04:55;98127.70000000001;;;11.24;100
17950;BME280;9100;48.700;9.316;2023-05-25T04:05:00;98130.1;;;11.26;100
17950;BME280;9100;48.700;9.316;2023-05-25T04:06:01;98133.3;;;11.28;100
17950;BME280;9100;48.700;9.316;2023-05-25T04:07:01;98127.3;;;11.27;100
17950;BME280;9100;48.700;9.316;2023-05-25T04:08:01;98135.6;;;11.29;100
17950;BME280;9100;48.700;9.316;2023-05-25T04:09:01;98135.6;;;11.29;100
17950;BME280;9100;48.700;9.316;2023-05-25T04:09:55;98131.5;;;11.28;100
17950;BME280;9100;48.700;9.316;2023-05-25T04:10:00;98130.5;;;11.29;100
17950;BME280;9100;48.700;9.316;2023-05-25T04:11:01;98135.6;;;11.29;100
17950;BME280;9100;48.700;9.316;2023-05-25T04:12:01;98127.09999999999;;;11.29;100
17950;BME280;9100;48.700;9.316;2023-05-25T04:13:01;98128.09999999999;;;11.28;100
17950;BME280;9100;48.700;9.316;2023-05-25T04:14:00;98128.09999999999;;;11.28;100
17950;BME280;9100;48.700;9.316;2023-05-25T04:14:55;98128.3;;;11.26;100
17950;BME280;9100;48.700;9.316;2023-05-25T04:15:00;98126.70000000001;;;11.25;100
17950;BME280;9100;48.700;9.316;2023-05-25T04:16:01;98129.2;;;11.25;100
17950;BME280;9100;48.700;9.316;2023-05-25T04:17:01;98129.2;;;11.25;100
17950;BME280;9100;48.700;9.316;2023-05-25T04:18:01;98132.8;;;11.24;100
17950;BME280;9100;48.700;9.316;2023-05-25T04:19:01;98132;;;11.24;100
17950;BME280;9100;48.700;9.316;2023-05-25T04:19:55;98132.8;;;11.24;100
17950;BME280;9100;48.700;9.316;2023-05-25T04:20:01;98135.5;;;11.23;100
17950;BME280;9100;48.700;9.316;2023-05-25T04:21:01;98134.40000000001;;;11.25;100
17950;BME280;9100;48.700;9.316;2023-05-25T04:22:01;98131.2;;;11.23;100
17950;BME280;9100;48.700;9.316;2023-05-25T04:23:01;98133.6;;;11.25;100
17950;BME280;9100;48.700;9.316;2023-05-25T04:24:01;98128.59999999999;;;11.23;100
17950;BME280;9100;48.700;9.316;2023-05-25T04:24:55;98135.5;;;11.23;100
17950;BME280;9100;48.700;9.316;2023-05-25T04:25:01;98141.4;;;11.23;100